Saint Clair Beach, Canada
Current Conditions -  °F | °C
As of 11:00 AM on Friday 21 Nov 2014 (Local Time) from CYQG Reporting Station
Few Clouds Few Clouds  
Wind Chill: 12°   Ceiling: Unl
Heat Index: 21°   Visibility: 15mi
Dew Point:   Wind: 8mph
Humidity: 54%   Direction: 280°W
Pressure: 30.47"   Gusts: NA
Location:  42.32°N, 82.85°W
Report Text: CYQG 211600Z 28007KT 15SM FEW025 M06/M14 A3047 RMK CF1 CF TR SLP330
Loading
Personal Weather Stations






























Interactive Weather Map New forecast layout! Learn more

10-Day Weather Forecast

Advertisements
Track Severe Weather on mobile